Terminal Aerodrome Forecast
Issued by NWS

Home | Current Version | Previous Version | Text Only | Print | Product List | Glossary On
Versions: 1 2 3 4 5 6 7 8 9 10 11 12 13 14 15 16 17 18 19 20 21
000
FTUS42 TJSJ 230300 AAA
TAFJBQ
TAF AMD
TJBQ 230326Z 2303/2324 14003KT P6SM SCT035 OVC080
     FM231200 15006KT P6SM SCT025 BKN070
     FM231800 18008KT P6SM VCTS SCT022CB BKN040=

USA.gov is the U.S. government's official web portal to all federal, state and local government web resources and services.